createdAt,value
2022-09-15T00:01:20.360Z,715.38
2022-09-15T00:03:48.768Z,716.20
2022-09-15T00:06:17.493Z,704.85
2022-09-15T00:08:45.534Z,712.63
2022-09-15T00:11:20.829Z,702.92
2022-09-15T00:13:49.331Z,697.00
2022-09-15T00:16:19.717Z,698.95
2022-09-15T00:18:47.923Z,701.85
2022-09-15T00:21:20.701Z,694.22
2022-09-15T00:23:49.906Z,693.85
2022-09-15T00:26:24.055Z,707.38
2022-09-15T00:28:52.778Z,697.17
2022-09-15T00:31:25.476Z,701.30
2022-09-15T00:33:57.054Z,698.83
2022-09-15T00:36:26.723Z,703.67
2022-09-15T00:38:55.244Z,704.58
2022-09-15T00:41:24.752Z,701.22
2022-09-15T00:44:03.604Z,699.05
2022-09-15T00:46:37.421Z,700.53
2022-09-15T00:49:28.446Z,699.95
2022-09-15T00:52:11.818Z,708.08
2022-09-15T00:54:49.922Z,694.15
2022-09-15T00:57:51.010Z,694.00
2022-09-15T01:00:22.582Z,683.58
2022-09-15T01:02:50.976Z,699.58
2022-09-15T01:05:23.714Z,692.80
2022-09-15T01:08:07.365Z,695.85
2022-09-15T01:10:39.932Z,689.85
2022-09-15T01:13:12.565Z,690.53
2022-09-15T01:16:09.636Z,689.92
2022-09-15T01:19:02.534Z,689.53
2022-09-15T01:21:55.693Z,703.97
2022-09-15T01:24:25.846Z,695.53
2022-09-15T01:27:47.702Z,703.78
2022-09-15T01:30:23.956Z,690.30
2022-09-15T01:33:24.596Z,685.97
2022-09-15T01:36:01.574Z,691.65
2022-09-15T01:39:03.678Z,701.15
2022-09-15T01:41:43.194Z,691.22
2022-09-15T01:44:24.157Z,690.70
2022-09-15T01:47:00.097Z,695.33
2022-09-15T01:49:35.607Z,696.15
2022-09-15T01:52:03.773Z,688.80
2022-09-15T01:54:40.255Z,686.70
2022-09-15T01:57:08.431Z,689.13
2022-09-15T01:59:36.041Z,703.65
2022-09-15T02:02:18.001Z,696.95
2022-09-15T02:05:03.770Z,686.55
2022-09-15T02:07:47.854Z,697.33
2022-09-15T02:11:05.439Z,688.55
2022-09-15T02:13:50.250Z,694.83
2022-09-15T02:16:23.059Z,689.20
2022-09-15T02:19:09.746Z,704.67
2022-09-15T02:22:04.460Z,699.92
2022-09-15T02:24:40.490Z,698.35
2022-09-15T02:27:16.206Z,700.13
2022-09-15T02:29:47.096Z,703.38
2022-09-15T02:32:19.497Z,695.55
2022-09-15T02:34:51.508Z,698.38
2022-09-15T02:37:22.062Z,700.00
2022-09-15T02:39:58.088Z,698.65
2022-09-15T02:42:32.043Z,690.10
2022-09-15T02:45:01.089Z,689.70
2022-09-15T02:47:29.527Z,708.85
2022-09-15T02:49:57.286Z,692.15
2022-09-15T02:52:25.053Z,698.58
2022-09-15T02:54:53.501Z,708.10
2022-09-15T02:57:21.388Z,699.58
2022-09-15T03:00:07.701Z,698.38
2022-09-15T03:02:35.529Z,693.10
2022-09-15T03:05:03.600Z,689.17
2022-09-15T03:07:32.250Z,693.20
2022-09-15T03:10:00.641Z,686.97
2022-09-15T03:12:29.300Z,693.92
2022-09-15T03:14:58.111Z,687.72
2022-09-15T03:17:27.023Z,690.85
2022-09-15T03:19:55.594Z,694.78
2022-09-15T03:22:24.733Z,698.20
2022-09-15T03:24:53.102Z,690.45
2022-09-15T03:27:21.536Z,693.50
2022-09-15T03:29:49.965Z,681.97
2022-09-15T03:32:18.288Z,691.80
2022-09-15T03:34:46.645Z,696.88
2022-09-15T03:37:19.503Z,688.90
2022-09-15T03:39:48.275Z,689.75
2022-09-15T03:42:16.618Z,690.42
2022-09-15T03:44:44.799Z,696.03
2022-09-15T03:47:13.147Z,689.47
2022-09-15T03:49:41.408Z,688.53
2022-09-15T03:52:09.985Z,689.92
2022-09-15T03:54:38.330Z,688.50
2022-09-15T03:57:06.739Z,693.97
2022-09-15T03:59:34.607Z,697.15
2022-09-15T04:02:03.116Z,687.60
2022-09-15T04:04:32.235Z,687.35
2022-09-15T04:07:01.088Z,695.50
2022-09-15T04:09:30.779Z,688.55
2022-09-15T04:11:59.046Z,682.42
2022-09-15T04:14:28.009Z,687.55
2022-09-15T04:16:56.175Z,697.50
2022-09-15T04:19:24.439Z,688.65
2022-09-15T04:21:52.672Z,686.83
2022-09-15T04:24:21.800Z,688.72
2022-09-15T04:26:50.105Z,684.53
2022-09-15T04:29:18.932Z,684.85
2022-09-15T04:31:47.298Z,687.03
2022-09-15T04:34:15.649Z,688.97
2022-09-15T04:36:44.166Z,691.88
2022-09-15T04:39:12.333Z,691.38
2022-09-15T04:41:40.422Z,691.35
2022-09-15T04:44:08.946Z,688.53
2022-09-15T04:46:37.249Z,690.60
2022-09-15T04:49:05.707Z,697.65
2022-09-15T04:51:34.175Z,691.95
2022-09-15T04:54:02.677Z,699.38
2022-09-15T04:56:30.919Z,684.72
2022-09-15T04:59:03.939Z,688.05
2022-09-15T05:01:35.611Z,680.92
2022-09-15T05:04:05.044Z,676.17
2022-09-15T05:06:35.154Z,680.05
2022-09-15T05:09:09.973Z,679.95
2022-09-15T05:11:38.997Z,679.70
2022-09-15T05:14:08.208Z,673.78
2022-09-15T05:16:36.758Z,675.17
2022-09-15T05:19:05.130Z,672.35
2022-09-15T05:21:33.414Z,668.70
2022-09-15T05:24:01.755Z,670.38
2022-09-15T05:26:30.653Z,671.05
2022-09-15T05:28:59.035Z,658.85
2022-09-15T05:31:31.198Z,656.33
2022-09-15T05:34:03.021Z,651.63
2022-09-15T05:36:31.718Z,641.25
2022-09-15T05:39:00.447Z,649.22
2022-09-15T05:41:29.914Z,636.47
2022-09-15T05:43:58.870Z,633.90
2022-09-15T05:46:28.067Z,617.63
2022-09-15T05:48:58.679Z,611.30
2022-09-15T05:51:27.849Z,599.40
2022-09-15T05:53:56.380Z,602.70
2022-09-15T05:56:24.600Z,586.13
2022-09-15T05:58:53.070Z,577.97
2022-09-15T06:01:24.633Z,586.85
2022-09-15T06:03:53.876Z,574.55
2022-09-15T06:06:23.746Z,568.50
2022-09-15T06:08:58.899Z,570.80
2022-09-15T06:11:30.068Z,562.00
2022-09-15T06:14:03.453Z,566.80
2022-09-15T06:16:34.075Z,553.55
2022-09-15T06:19:02.485Z,561.92
2022-09-15T06:21:32.710Z,552.25
2022-09-15T06:24:04.701Z,560.20
2022-09-15T06:26:33.426Z,554.15
2022-09-15T06:29:04.032Z,546.67
2022-09-15T06:31:33.874Z,544.47
2022-09-15T06:34:04.211Z,547.65
2022-09-15T06:36:32.963Z,549.80
2022-09-15T06:39:01.152Z,544.55
2022-09-15T06:41:47.026Z,550.90
2022-09-15T06:44:22.261Z,536.67
2022-09-15T06:46:50.494Z,537.28
2022-09-15T06:49:19.326Z,534.55
2022-09-15T06:51:47.750Z,530.70
2022-09-15T06:54:16.910Z,527.28
2022-09-15T06:56:45.224Z,532.20
2022-09-15T06:59:14.162Z,528.72
2022-09-15T07:01:43.104Z,538.50
2022-09-15T07:04:11.247Z,525.30
2022-09-15T07:06:39.956Z,527.92
2022-09-15T07:09:08.301Z,529.42
2022-09-15T07:11:36.642Z,527.45
2022-09-15T07:14:05.133Z,532.47
2022-09-15T07:16:33.333Z,541.28
2022-09-15T07:19:03.890Z,538.80
2022-09-15T07:21:32.349Z,532.97
2022-09-15T07:24:03.869Z,535.88
2022-09-15T07:26:35.382Z,538.13
2022-09-15T07:29:06.963Z,533.83
2022-09-15T07:31:37.534Z,540.85
2022-09-15T07:34:06.564Z,541.15
2022-09-15T07:36:35.463Z,547.60
2022-09-15T07:39:05.485Z,545.65
2022-09-15T07:41:34.510Z,557.25
2022-09-15T07:44:02.665Z,553.42
2022-09-15T07:46:32.518Z,561.33
2022-09-15T07:49:02.975Z,568.65
2022-09-15T07:51:31.608Z,567.58
2022-09-15T07:53:59.521Z,568.15
2022-09-15T07:56:27.959Z,570.33
2022-09-15T07:58:56.327Z,574.10
2022-09-15T08:01:24.861Z,583.28
2022-09-15T08:03:53.562Z,585.72
2022-09-15T08:06:24.605Z,585.67
2022-09-15T08:08:59.787Z,584.17
2022-09-15T08:11:30.271Z,590.05
2022-09-15T08:14:03.129Z,595.17
2022-09-15T08:16:31.564Z,588.05
2022-09-15T08:18:59.878Z,597.85
2022-09-15T08:21:28.479Z,594.05
2022-09-15T08:24:01.526Z,601.65
2022-09-15T08:26:31.137Z,606.10
2022-09-15T08:28:59.627Z,613.25
2022-09-15T08:31:27.917Z,605.70
2022-09-15T08:33:56.841Z,606.17
2022-09-15T08:36:28.319Z,613.60
2022-09-15T08:38:56.875Z,606.60
2022-09-15T08:41:33.011Z,608.17
2022-09-15T08:44:38.342Z,611.55
2022-09-15T08:47:19.084Z,605.00
2022-09-15T08:50:01.267Z,615.85
2022-09-15T08:52:52.484Z,616.65
2022-09-15T08:55:45.203Z,612.00
2022-09-15T08:58:25.866Z,611.88
2022-09-15T09:01:12.289Z,625.70
2022-09-15T09:04:26.291Z,619.72
2022-09-15T09:07:37.949Z,614.63
2022-09-15T09:10:16.421Z,620.65
2022-09-15T09:12:56.608Z,623.72
2022-09-15T09:15:27.199Z,631.13
2022-09-15T09:18:50.752Z,636.28
2022-09-15T09:21:24.226Z,629.00
2022-09-15T09:24:26.137Z,646.28
2022-09-15T09:26:55.975Z,642.08
2022-09-15T09:29:39.553Z,637.15
2022-09-15T09:32:21.610Z,643.03
2022-09-15T09:35:03.826Z,643.75
2022-09-15T09:37:32.994Z,642.95
2022-09-15T09:40:01.616Z,645.28
2022-09-15T09:42:32.235Z,650.42
2022-09-15T09:45:00.603Z,651.75
2022-09-15T09:47:29.960Z,653.38
2022-09-15T09:49:58.307Z,650.08
2022-09-15T09:52:38.050Z,661.88
2022-09-15T09:55:27.750Z,654.92
2022-09-15T09:58:25.613Z,252.47
2022-09-15T10:00:54.367Z,492.90
2022-09-15T10:03:32.094Z,2.13
2022-09-15T10:06:12.511Z,0.20
2022-09-15T10:08:56.380Z,0.30
2022-09-15T10:11:50.098Z,1.58
2022-09-15T10:14:56.727Z,1.40
2022-09-15T10:17:38.521Z,2.22
2022-09-15T10:20:32.559Z,641.78
2022-09-15T10:23:19.048Z,597.70
2022-09-15T10:25:59.011Z,309.75
2022-09-15T10:28:27.975Z,773.67
2022-09-15T10:31:10.976Z,597.30
2022-09-15T10:33:42.733Z,1.38
2022-09-15T10:36:24.018Z,2.20
2022-09-15T10:39:32.271Z,2.30
2022-09-15T10:42:22.930Z,2.13
2022-09-15T10:45:18.489Z,2.05
2022-09-15T10:48:07.156Z,1.42
2022-09-15T10:51:35.194Z,8.82
2022-09-15T10:54:35.495Z,1.30
2022-09-15T10:57:42.789Z,1.17
2022-09-15T11:00:24.463Z,0.15
2022-09-15T11:03:01.557Z,0.73
2022-09-15T11:05:39.440Z,1.55
2022-09-15T11:08:46.586Z,1.77
2022-09-15T11:11:52.990Z,1.98
2022-09-15T11:14:54.963Z,2.03
2022-09-15T11:18:18.765Z,1.77
2022-09-15T11:21:24.542Z,1.73
2022-09-15T11:24:34.737Z,2.58
2022-09-15T11:27:02.933Z,2.05
2022-09-15T11:30:05.569Z,2.03
2022-09-15T11:32:40.039Z,2.20
2022-09-15T11:35:39.789Z,2.70
2022-09-15T11:38:18.374Z,2.00
2022-09-15T11:41:13.733Z,2.40
2022-09-15T11:44:18.309Z,2.50
2022-09-15T11:47:00.153Z,2.00
2022-09-15T11:49:50.996Z,2.42
2022-09-15T11:52:43.550Z,790.20
2022-09-15T11:55:33.614Z,768.85
2022-09-15T11:58:22.311Z,112.03
2022-09-15T12:01:10.704Z,743.85
2022-09-15T12:03:54.005Z,786.28
2022-09-15T12:06:35.206Z,797.33
2022-09-15T12:09:07.340Z,833.58
2022-09-15T12:11:41.984Z,775.88
2022-09-15T12:14:17.453Z,815.45
2022-09-15T12:16:46.051Z,790.03
2022-09-15T12:19:42.081Z,2.22
2022-09-15T12:22:33.908Z,873.42
2022-09-15T12:25:17.182Z,865.50
2022-09-15T12:28:23.333Z,840.08
2022-09-15T12:31:26.766Z,867.78
2022-09-15T12:34:21.443Z,885.88
2022-09-15T12:36:53.507Z,891.25
2022-09-15T12:39:41.614Z,907.72
2022-09-15T12:42:31.293Z,901.13
2022-09-15T12:45:21.290Z,937.15
2022-09-15T12:47:56.543Z,2.05
2022-09-15T12:50:39.631Z,2.05
2022-09-15T12:56:10.509Z,2.00
2022-09-15T12:58:51.014Z,2.55
2022-09-15T13:01:19.528Z,2.63
2022-09-15T13:03:51.011Z,3.30
2022-09-15T13:06:29.429Z,2.20
2022-09-15T13:09:04.035Z,2.53
2022-09-15T13:11:36.930Z,2.33
2022-09-15T13:14:08.559Z,1.80
2022-09-15T13:16:45.698Z,2.20
2022-09-15T13:19:44.511Z,3.22
2022-09-15T13:22:16.697Z,2.65
2022-09-15T13:25:13.784Z,2.33
2022-09-15T13:27:55.289Z,2.60
2022-09-15T13:30:58.330Z,2.83
2022-09-15T13:41:10.241Z,1.77
2022-09-15T13:43:59.245Z,2.60
2022-09-15T13:46:39.401Z,1.70
2022-09-15T13:49:32.892Z,2.60
2022-09-15T13:52:16.345Z,2.35
2022-09-15T13:55:16.712Z,2.50
2022-09-15T14:00:55.038Z,2.63
2022-09-15T14:03:34.010Z,2.50
2022-09-15T14:06:02.475Z,3.03
2022-09-15T14:08:33.523Z,3.00
2022-09-15T14:11:09.953Z,2.45
2022-09-15T14:13:45.229Z,2.72
2022-09-15T14:16:26.721Z,4.95
2022-09-15T14:18:58.451Z,3.63
2022-09-15T14:21:35.341Z,3.70
2022-09-15T14:24:13.745Z,148.77
2022-09-15T14:26:42.032Z,118.05
2022-09-15T14:29:20.173Z,449.20
2022-09-15T14:31:49.295Z,303.65
2022-09-15T14:34:24.472Z,767.50
2022-09-15T14:37:27.621Z,784.70
2022-09-15T14:39:59.643Z,755.70
2022-09-15T14:42:38.778Z,527.17
2022-09-15T14:48:15.821Z,582.72
2022-09-15T14:51:01.998Z,458.85
2022-09-15T14:53:35.463Z,463.77
2022-09-15T14:56:12.319Z,490.52
2022-09-15T14:58:52.778Z,449.25
2022-09-15T15:01:30.770Z,272.90
2022-09-15T15:04:10.959Z,360.88
2022-09-15T15:06:49.552Z,267.95
2022-09-15T15:09:50.410Z,176.50
2022-09-15T15:12:36.214Z,81.15
2022-09-15T15:15:06.070Z,26.15
2022-09-15T15:17:49.471Z,128.75
2022-09-15T15:20:24.342Z,100.85
2022-09-15T15:23:19.144Z,10.85
2022-09-15T15:25:47.178Z,32.13
2022-09-15T15:28:39.333Z,229.07
2022-09-15T15:31:15.871Z,721.78
2022-09-15T15:34:24.737Z,760.15
2022-09-15T15:36:52.538Z,514.17
2022-09-15T15:39:25.297Z,442.98
2022-09-15T15:42:06.258Z,335.90
2022-09-15T15:44:34.402Z,258.10
2022-09-15T15:47:24.634Z,270.02
2022-09-15T15:50:21.809Z,231.50
2022-09-15T15:52:50.672Z,191.05
2022-09-15T15:55:22.433Z,196.73
2022-09-15T15:57:56.040Z,206.70
2022-09-15T16:00:32.679Z,177.43
2022-09-15T16:03:00.633Z,228.82
2022-09-15T16:05:30.038Z,326.17
2022-09-15T16:08:04.507Z,626.38
2022-09-15T16:10:42.969Z,612.65
2022-09-15T16:13:16.359Z,316.15
2022-09-15T16:15:45.256Z,350.55
2022-09-15T16:18:13.631Z,673.72
2022-09-15T16:20:42.701Z,604.47
2022-09-15T16:23:20.458Z,568.65
2022-09-15T16:25:55.386Z,579.10
2022-09-15T16:28:23.411Z,520.17
2022-09-15T16:30:51.414Z,487.65
2022-09-15T16:33:19.916Z,261.77
2022-09-15T16:36:08.756Z,148.43
2022-09-15T16:38:37.184Z,147.13
2022-09-15T16:41:19.358Z,80.18
2022-09-15T16:43:48.435Z,937.53
2022-09-15T16:46:17.207Z,935.22
2022-09-15T16:48:47.358Z,923.88
2022-09-15T16:51:34.754Z,928.45
2022-09-15T16:54:03.141Z,0.05
2022-09-15T16:56:31.404Z,0.47
2022-09-15T16:59:00.702Z,0.00
2022-09-15T17:01:29.045Z,0.00
2022-09-15T17:03:57.617Z,0.08
2022-09-15T17:06:26.155Z,1.85
2022-09-15T17:08:55.705Z,3.28
2022-09-15T17:11:25.478Z,3.30
2022-09-15T17:13:53.762Z,3.25
2022-09-15T17:16:25.011Z,4.03
2022-09-15T17:18:53.290Z,4.45
2022-09-15T17:21:21.476Z,4.47
2022-09-15T17:23:50.547Z,7.05
2022-09-15T17:26:24.661Z,5.35
2022-09-15T17:28:56.494Z,3.65
2022-09-15T17:31:25.192Z,5.38
2022-09-15T17:33:53.520Z,10.65
2022-09-15T17:36:21.626Z,8.43
2022-09-15T17:38:49.836Z,3.22
2022-09-15T17:41:22.818Z,3.97
2022-09-15T17:43:52.346Z,4.50
2022-09-15T17:46:20.798Z,3.33
2022-09-15T17:48:48.905Z,3.63
2022-09-15T17:51:17.774Z,3.63
2022-09-15T17:53:47.268Z,4.18
2022-09-15T17:56:15.528Z,3.33
2022-09-15T17:58:43.835Z,97.72
2022-09-15T18:01:15.359Z,2.38
2022-09-15T18:03:45.276Z,3.75
2022-09-15T18:06:13.896Z,510.60
2022-09-15T18:08:42.167Z,519.58
2022-09-15T18:11:14.499Z,483.50
2022-09-15T18:13:43.192Z,524.55
2022-09-15T18:16:14.655Z,225.85
2022-09-15T18:18:43.243Z,262.02
2022-09-15T18:21:24.628Z,841.67
2022-09-15T18:23:52.939Z,332.25
2022-09-15T18:26:25.404Z,11.05
2022-09-15T18:28:55.005Z,3.50
2022-09-15T18:31:23.338Z,0.10
2022-09-15T18:33:51.504Z,0.10
2022-09-15T18:36:22.621Z,0.20
2022-09-15T18:38:51.074Z,0.30
2022-09-15T18:41:19.404Z,0.13
2022-09-15T18:43:50.544Z,0.00
2022-09-15T18:46:19.484Z,0.60
2022-09-15T18:48:48.096Z,0.30
2022-09-15T18:51:23.734Z,0.20
2022-09-15T18:53:54.422Z,0.50
2022-09-15T18:56:22.988Z,0.55
2022-09-15T18:58:54.089Z,0.30
2022-09-15T19:01:22.817Z,1.45
2022-09-15T19:03:51.075Z,2.38
2022-09-15T19:06:19.146Z,1.20
2022-09-15T19:08:47.318Z,0.60
2022-09-15T19:11:15.545Z,0.60
2022-09-15T19:13:43.817Z,1.15
2022-09-15T19:16:12.063Z,0.60
2022-09-15T19:18:40.332Z,0.57
2022-09-15T19:21:10.778Z,0.80
2022-09-15T19:23:39.434Z,0.20
2022-09-15T19:26:13.647Z,0.10
2022-09-15T19:28:42.478Z,0.28
2022-09-15T19:31:13.253Z,0.50
2022-09-15T19:33:41.799Z,0.98
2022-09-15T19:36:27.613Z,2.78
2022-09-15T19:39:00.389Z,3.78
2022-09-15T19:41:29.222Z,4.07
2022-09-15T19:43:57.692Z,4.63
2022-09-15T19:46:26.528Z,4.03
2022-09-15T19:48:55.053Z,3.33
2022-09-15T19:51:23.986Z,3.70
2022-09-15T19:53:59.525Z,3.55
2022-09-15T19:56:29.273Z,4.05
2022-09-15T19:58:59.106Z,3.67
2022-09-15T20:01:29.614Z,4.30
2022-09-15T20:03:58.430Z,4.03
2022-09-15T20:06:31.625Z,4.53
2022-09-15T20:09:01.018Z,3.55
2022-09-15T20:11:30.827Z,3.70
2022-09-15T20:14:04.014Z,4.88
2022-09-15T20:16:35.167Z,3.63
2022-09-15T20:19:04.324Z,3.80
2022-09-15T20:21:52.264Z,4.10
2022-09-15T20:24:20.836Z,3.88
2022-09-15T20:26:48.995Z,3.58
2022-09-15T20:29:17.745Z,3.70
2022-09-15T20:31:46.309Z,3.78
2022-09-15T20:34:14.519Z,3.83
2022-09-15T20:36:44.870Z,3.83
2022-09-15T20:39:22.100Z,4.38
2022-09-15T20:41:50.512Z,4.15
2022-09-15T20:44:18.639Z,4.95
2022-09-15T20:46:47.986Z,5.10
2022-09-15T20:49:16.214Z,613.45
2022-09-15T20:51:45.199Z,4.85
2022-09-15T20:54:13.300Z,4.53
2022-09-15T20:56:41.392Z,5.85
2022-09-15T20:59:13.706Z,610.85
2022-09-15T21:01:42.034Z,7.40
2022-09-15T21:04:11.030Z,9.65
2022-09-15T21:06:39.714Z,7.22
2022-09-15T21:09:08.665Z,27.60
2022-09-15T21:11:36.983Z,129.10
2022-09-15T21:14:05.402Z,595.60
2022-09-15T21:16:35.017Z,594.33
2022-09-15T21:19:03.553Z,589.47
2022-09-15T21:21:33.608Z,587.20
2022-09-15T21:24:06.140Z,589.85
2022-09-15T21:27:06.557Z,583.70
2022-09-15T21:29:34.752Z,574.17
2022-09-15T21:32:03.078Z,575.00
2022-09-15T21:34:31.734Z,583.88
2022-09-15T21:37:00.070Z,572.10
2022-09-15T21:39:28.201Z,575.92
2022-09-15T21:41:56.335Z,573.42
2022-09-15T21:44:24.959Z,582.58
2022-09-15T21:46:53.096Z,584.20
2022-09-15T21:49:20.753Z,587.92
2022-09-15T21:51:49.805Z,573.47
2022-09-15T21:54:17.973Z,579.05
2022-09-15T21:56:46.209Z,575.28
2022-09-15T21:59:14.397Z,575.78
2022-09-15T22:01:42.571Z,584.47
2022-09-15T22:04:10.768Z,572.15
2022-09-15T22:06:40.915Z,580.97
2022-09-15T22:09:15.486Z,568.65
2022-09-15T22:11:44.113Z,570.40
2022-09-15T22:14:13.199Z,577.83
2022-09-15T22:16:42.688Z,565.40
2022-09-15T22:19:12.016Z,584.25
2022-09-15T22:21:41.900Z,583.97
2022-09-15T22:24:13.366Z,584.58
2022-09-15T22:26:42.906Z,578.42
2022-09-15T22:29:11.175Z,580.03
2022-09-15T22:31:39.411Z,561.80
2022-09-15T22:34:07.584Z,578.17
2022-09-15T22:36:35.714Z,583.55
2022-09-15T22:39:06.116Z,588.42
2022-09-15T22:41:37.702Z,578.10
2022-09-15T22:44:13.218Z,549.47
2022-09-15T22:46:41.678Z,540.67
2022-09-15T22:49:09.367Z,542.33
2022-09-15T22:51:37.690Z,569.67
2022-09-15T22:54:05.678Z,559.53
2022-09-15T22:56:33.715Z,536.38
2022-09-15T22:59:02.651Z,538.67
2022-09-15T23:01:31.309Z,526.42
2022-09-15T23:04:01.900Z,535.88
2022-09-15T23:06:33.445Z,525.33
2022-09-15T23:09:05.933Z,532.95
2022-09-15T23:11:34.444Z,531.15
2022-09-15T23:14:03.078Z,509.00
2022-09-15T23:16:31.527Z,522.83
2022-09-15T23:19:00.149Z,528.47
2022-09-15T23:21:28.545Z,530.85
2022-09-15T23:23:57.242Z,526.45
2022-09-15T23:26:26.801Z,522.03
2022-09-15T23:28:55.233Z,517.92
2022-09-15T23:31:23.522Z,529.70
2022-09-15T23:33:51.817Z,536.15
2022-09-15T23:36:19.964Z,533.45
2022-09-15T23:38:49.029Z,529.30
2022-09-15T23:41:18.105Z,517.67
2022-09-15T23:43:46.605Z,537.78
2022-09-15T23:46:14.742Z,517.42
2022-09-15T23:48:43.116Z,545.83
2022-09-15T23:51:11.326Z,526.53
2022-09-15T23:53:39.711Z,535.03
2022-09-15T23:56:07.717Z,525.60
2022-09-15T23:58:35.537Z,520.45
